createdAt,value
2023-01-28T00:00:54.179Z,2.51
2023-01-28T00:03:22.228Z,2.52
2023-01-28T00:05:50.370Z,2.53
2023-01-28T00:08:18.403Z,2.52
2023-01-28T00:10:48.208Z,2.44
2023-01-28T00:13:16.181Z,2.51
2023-01-28T00:15:44.507Z,2.54
2023-01-28T00:18:12.573Z,2.44
2023-01-28T00:20:40.429Z,2.42
2023-01-28T00:23:08.440Z,2.45
2023-01-28T00:25:36.525Z,2.42
2023-01-28T00:28:05.684Z,2.43
2023-01-28T00:30:33.639Z,2.37
2023-01-28T00:33:01.900Z,2.41
2023-01-28T00:35:30.027Z,2.42
2023-01-28T00:37:57.909Z,2.43
2023-01-28T00:40:28.763Z,2.42
2023-01-28T00:42:58.150Z,2.41
2023-01-28T00:45:27.387Z,2.40
2023-01-28T00:47:56.259Z,2.36
2023-01-28T00:50:24.177Z,2.37
2023-01-28T00:52:54.045Z,2.35
2023-01-28T00:55:22.160Z,2.36
2023-01-28T00:57:50.552Z,2.38
2023-01-28T01:00:21.094Z,2.39
2023-01-28T01:02:51.662Z,2.29
2023-01-28T01:05:19.978Z,2.29
2023-01-28T01:07:47.848Z,2.25
2023-01-28T01:10:19.457Z,2.22
2023-01-28T01:12:47.909Z,2.17
2023-01-28T01:15:17.113Z,2.15
2023-01-28T01:17:48.791Z,2.15
2023-01-28T01:20:20.757Z,2.15
2023-01-28T01:22:48.662Z,2.10
2023-01-28T01:25:18.675Z,2.08
2023-01-28T01:27:49.244Z,1.87
2023-01-28T01:30:18.047Z,1.80
2023-01-28T01:32:45.880Z,1.70
2023-01-28T01:35:14.106Z,1.64
2023-01-28T01:37:45.584Z,1.58
2023-01-28T01:40:14.040Z,1.54
2023-01-28T01:42:41.934Z,1.47
2023-01-28T01:45:15.102Z,1.42
2023-01-28T01:47:48.744Z,1.35
2023-01-28T01:50:25.499Z,1.37
2023-01-28T01:52:58.269Z,1.33
2023-01-28T01:55:32.197Z,1.29
2023-01-28T01:58:06.105Z,1.26
2023-01-28T02:00:34.040Z,1.18
2023-01-28T02:03:03.007Z,1.10
2023-01-28T02:05:31.192Z,1.03
2023-01-28T02:08:20.982Z,0.97
2023-01-28T02:10:51.732Z,0.91
2023-01-28T02:13:25.918Z,0.90
2023-01-28T02:15:54.923Z,0.86
2023-01-28T02:18:23.643Z,0.88
2023-01-28T02:21:28.902Z,0.82
2023-01-28T02:24:17.654Z,0.78
2023-01-28T02:27:11.383Z,0.76
2023-01-28T02:29:50.273Z,0.71
2023-01-28T02:32:25.303Z,0.68
2023-01-28T02:35:00.165Z,0.65
2023-01-28T02:37:34.151Z,0.56
2023-01-28T02:40:07.850Z,0.50
2023-01-28T02:42:38.750Z,0.41
2023-01-28T02:45:17.568Z,0.37
2023-01-28T02:48:00.110Z,0.31
2023-01-28T02:50:39.659Z,0.23
2023-01-28T02:53:37.070Z,0.17
2023-01-28T02:56:15.301Z,0.13
2023-01-28T02:58:48.967Z,0.10
2023-01-28T03:01:25.619Z,0.01
2023-01-28T03:04:01.335Z,-0.07
2023-01-28T03:06:35.750Z,-0.09
2023-01-28T03:09:26.970Z,-0.14
2023-01-28T03:12:15.387Z,-0.17
2023-01-28T03:15:04.626Z,-0.18
2023-01-28T03:17:58.560Z,-0.24
2023-01-28T03:20:47.618Z,-0.24
2023-01-28T03:23:39.062Z,-0.23
2023-01-28T03:26:27.418Z,-0.29
2023-01-28T03:29:21.327Z,-0.31
2023-01-28T03:32:09.408Z,-0.37
2023-01-28T03:34:56.964Z,-0.40
2023-01-28T03:37:26.883Z,-0.44
2023-01-28T03:40:08.729Z,-0.48
2023-01-28T03:42:36.861Z,-0.51
2023-01-28T03:45:24.868Z,-0.55
2023-01-28T03:47:53.073Z,-0.61
2023-01-28T03:50:23.044Z,-0.65
2023-01-28T03:53:14.926Z,-0.64
2023-01-28T03:55:50.692Z,-0.70
2023-01-28T03:58:19.338Z,-0.71
2023-01-28T04:00:47.640Z,-0.72
2023-01-28T04:03:18.071Z,-0.75
2023-01-28T04:06:02.395Z,-0.75
2023-01-28T04:08:54.521Z,-0.86
2023-01-28T04:11:31.654Z,-0.85
2023-01-28T04:14:02.519Z,-0.91
2023-01-28T04:16:42.559Z,-0.96
2023-01-28T04:19:12.289Z,-0.99
2023-01-28T04:21:41.519Z,-1.03
2023-01-28T04:24:10.028Z,-1.03
2023-01-28T04:26:38.078Z,-1.03
2023-01-28T04:29:06.983Z,-1.04
2023-01-28T04:31:37.121Z,-1.04
2023-01-28T04:34:37.470Z,-1.04
2023-01-28T04:37:16.327Z,-1.03
2023-01-28T04:40:03.240Z,-1.04
2023-01-28T04:43:03.228Z,-1.05
2023-01-28T04:45:48.153Z,-1.02
2023-01-28T04:48:39.980Z,-1.03
2023-01-28T04:51:34.925Z,-1.02
2023-01-28T04:54:22.752Z,-1.01
2023-01-28T04:56:51.020Z,-1.03
2023-01-28T04:59:19.923Z,-1.00
2023-01-28T05:01:47.965Z,-1.00
2023-01-28T05:04:17.360Z,-0.93
2023-01-28T05:06:45.366Z,-0.92
2023-01-28T05:09:18.742Z,-0.90
2023-01-28T05:11:47.942Z,-0.85
2023-01-28T05:14:16.313Z,-0.85
2023-01-28T05:16:51.949Z,-0.85
2023-01-28T05:19:20.785Z,-0.81
2023-01-28T05:21:48.955Z,-0.82
2023-01-28T05:24:29.588Z,-0.86
2023-01-28T05:26:59.109Z,-0.89
2023-01-28T05:29:27.631Z,-0.81
2023-01-28T05:31:55.675Z,-0.79
2023-01-28T05:34:23.747Z,-0.73
2023-01-28T05:36:52.493Z,-0.69
2023-01-28T05:39:31.857Z,-0.67
2023-01-28T05:42:01.380Z,-0.64
2023-01-28T05:44:30.293Z,-0.63
2023-01-28T05:47:19.766Z,-0.59
2023-01-28T05:50:03.299Z,-0.58
2023-01-28T05:53:06.881Z,-0.56
2023-01-28T05:55:36.367Z,-0.56
2023-01-28T05:58:06.269Z,-0.54
2023-01-28T06:00:34.305Z,-0.50
2023-01-28T06:03:04.321Z,-0.45
2023-01-28T06:05:32.989Z,-0.45
2023-01-28T06:08:02.254Z,-0.45
2023-01-28T06:10:30.132Z,-0.39
2023-01-28T06:12:58.324Z,-0.38
2023-01-28T06:15:27.574Z,-0.42
2023-01-28T06:18:13.828Z,-0.39
2023-01-28T06:20:42.111Z,-0.35
2023-01-28T06:23:09.889Z,-0.33
2023-01-28T06:25:37.886Z,-0.29
2023-01-28T06:28:10.864Z,-0.27
2023-01-28T06:30:40.054Z,-0.23
2023-01-28T06:33:07.950Z,-0.20
2023-01-28T06:35:37.291Z,-0.16
2023-01-28T06:38:06.602Z,-0.17
2023-01-28T06:40:34.484Z,-0.14
2023-01-28T06:43:02.375Z,-0.11
2023-01-28T06:45:30.238Z,-0.10
2023-01-28T06:47:59.491Z,-0.07
2023-01-28T06:50:27.544Z,-0.05
2023-01-28T06:52:55.385Z,-0.04
2023-01-28T06:55:23.228Z,-0.03
2023-01-28T06:57:51.328Z,0.02
2023-01-28T07:00:20.260Z,0.04
2023-01-28T07:02:49.124Z,0.07
2023-01-28T07:05:18.574Z,0.10
2023-01-28T07:07:46.565Z,0.12
2023-01-28T07:10:14.653Z,0.15
2023-01-28T07:12:45.154Z,0.15
2023-01-28T07:15:15.147Z,0.15
2023-01-28T07:17:43.826Z,0.18
2023-01-28T07:20:15.070Z,0.19
2023-01-28T07:22:45.626Z,0.20
2023-01-28T07:25:15.255Z,0.19
2023-01-28T07:27:48.909Z,0.21
2023-01-28T07:30:18.316Z,0.24
2023-01-28T07:32:46.486Z,0.26
2023-01-28T07:35:16.043Z,0.29
2023-01-28T07:37:52.816Z,0.31
2023-01-28T07:40:21.042Z,0.32
2023-01-28T07:42:48.864Z,0.35
2023-01-28T07:45:17.088Z,0.36
2023-01-28T07:47:44.919Z,0.38
2023-01-28T07:50:13.458Z,0.41
2023-01-28T07:52:44.670Z,0.43
2023-01-28T07:55:15.415Z,0.40
2023-01-28T07:57:50.603Z,0.46
2023-01-28T08:00:19.504Z,0.47
2023-01-28T08:02:48.878Z,0.49
2023-01-28T08:05:18.328Z,0.48
2023-01-28T08:07:48.312Z,0.49
2023-01-28T08:10:18.468Z,0.50
2023-01-28T08:12:53.741Z,0.54
2023-01-28T08:15:21.639Z,0.61
2023-01-28T08:17:49.427Z,0.69
2023-01-28T08:20:18.640Z,0.74
2023-01-28T08:22:46.560Z,0.76
2023-01-28T08:25:14.561Z,0.77
2023-01-28T08:27:43.788Z,0.84
2023-01-28T08:30:13.282Z,0.84
2023-01-28T08:32:41.491Z,0.86
2023-01-28T08:35:09.823Z,0.86
2023-01-28T08:37:37.603Z,0.88
2023-01-28T08:40:06.511Z,0.91
2023-01-28T08:42:34.649Z,0.87
2023-01-28T08:45:03.971Z,0.87
2023-01-28T08:47:31.991Z,0.80
2023-01-28T08:50:00.415Z,0.85
2023-01-28T08:52:31.256Z,0.90
2023-01-28T08:54:59.079Z,0.93
2023-01-28T08:57:26.944Z,0.94
2023-01-28T08:59:54.771Z,0.97
2023-01-28T09:02:31.600Z,1.04
2023-01-28T09:05:01.318Z,1.11
2023-01-28T09:07:29.270Z,1.13
2023-01-28T09:09:58.502Z,1.10
2023-01-28T09:12:27.112Z,1.04
2023-01-28T09:14:55.335Z,1.09
2023-01-28T09:17:25.086Z,1.09
2023-01-28T09:19:52.891Z,1.11
2023-01-28T09:22:20.780Z,1.16
2023-01-28T09:24:48.627Z,1.16
2023-01-28T09:27:18.027Z,1.14
2023-01-28T09:29:45.992Z,1.12
2023-01-28T09:32:13.809Z,1.08
2023-01-28T09:34:44.413Z,1.14
2023-01-28T09:37:12.426Z,1.13
2023-01-28T09:39:40.542Z,1.08
2023-01-28T09:42:27.547Z,1.19
2023-01-28T09:45:04.130Z,1.13
2023-01-28T09:47:35.143Z,1.19
2023-01-28T09:50:10.686Z,1.31
2023-01-28T09:52:41.992Z,1.27
2023-01-28T09:55:20.825Z,1.35
2023-01-28T09:57:53.415Z,1.37
2023-01-28T10:00:24.137Z,1.30
2023-01-28T10:03:09.345Z,1.28
2023-01-28T10:05:51.034Z,1.36
2023-01-28T10:08:31.879Z,1.36
2023-01-28T10:11:08.809Z,1.32
2023-01-28T10:13:49.467Z,1.20
2023-01-28T10:16:25.045Z,1.20
2023-01-28T10:18:58.015Z,1.28
2023-01-28T10:21:32.171Z,1.37
2023-01-28T10:24:04.843Z,1.43
2023-01-28T10:26:36.986Z,1.34
2023-01-28T10:29:12.503Z,1.40
2023-01-28T10:31:46.721Z,1.46
2023-01-28T10:34:16.930Z,1.48
2023-01-28T10:36:48.599Z,1.37
2023-01-28T10:39:17.939Z,1.38
2023-01-28T10:41:57.355Z,1.50
2023-01-28T10:44:33.636Z,1.54
2023-01-28T10:47:05.713Z,1.53
2023-01-28T10:49:39.970Z,1.50
2023-01-28T10:52:14.453Z,1.48
2023-01-28T10:54:42.352Z,1.47
2023-01-28T10:57:14.098Z,1.61
2023-01-28T10:59:42.929Z,1.52
2023-01-28T11:02:27.704Z,1.39
2023-01-28T11:05:08.434Z,1.46
2023-01-28T11:07:37.933Z,1.47
2023-01-28T11:10:26.395Z,1.44
2023-01-28T11:12:58.204Z,1.49
2023-01-28T11:15:26.927Z,1.56
2023-01-28T11:17:58.692Z,1.70
2023-01-28T11:20:29.471Z,1.72
2023-01-28T11:22:59.220Z,1.75
2023-01-28T11:25:32.070Z,1.77
2023-01-28T11:28:02.044Z,1.79
2023-01-28T11:30:33.976Z,1.77
2023-01-28T11:33:14.106Z,1.82
2023-01-28T11:35:42.060Z,1.82
2023-01-28T11:38:20.831Z,1.75
2023-01-28T11:40:53.076Z,1.75
2023-01-28T11:43:23.184Z,1.80
2023-01-28T11:45:59.088Z,1.82
2023-01-28T11:48:39.264Z,1.83
2023-01-28T11:51:23.646Z,1.72
2023-01-28T11:54:19.051Z,1.62
2023-01-28T11:56:56.735Z,1.53
2023-01-28T11:59:39.776Z,1.75
2023-01-28T12:02:23.736Z,1.73
2023-01-28T12:05:15.688Z,1.73
2023-01-28T12:07:50.538Z,1.79
2023-01-28T12:10:29.036Z,1.74
2023-01-28T12:13:12.707Z,1.60
2023-01-28T12:16:22.065Z,1.67
2023-01-28T12:19:31.542Z,1.62
2023-01-28T12:22:18.651Z,1.60
2023-01-28T12:25:08.487Z,1.68
2023-01-28T12:27:48.763Z,1.72
2023-01-28T12:30:26.046Z,1.75
2023-01-28T12:33:17.769Z,1.72
2023-01-28T12:36:02.548Z,1.78
2023-01-28T12:38:40.957Z,1.84
2023-01-28T12:41:14.009Z,1.87
2023-01-28T12:43:57.153Z,1.79
2023-01-28T12:46:34.182Z,1.89
2023-01-28T12:49:06.495Z,2.06
2023-01-28T12:51:44.953Z,1.79
2023-01-28T12:54:20.195Z,1.91
2023-01-28T12:56:53.251Z,2.05
2023-01-28T12:59:29.743Z,1.95
2023-01-28T13:02:18.522Z,1.88
2023-01-28T13:04:54.056Z,1.91
2023-01-28T13:07:27.227Z,1.85
2023-01-28T13:10:04.525Z,1.91
2023-01-28T13:12:33.373Z,1.95
2023-01-28T13:15:03.871Z,1.89
2023-01-28T13:17:33.713Z,1.88
2023-01-28T13:20:01.628Z,1.86
2023-01-28T13:22:32.926Z,1.76
2023-01-28T13:25:20.153Z,1.84
2023-01-28T13:27:57.064Z,1.93
2023-01-28T13:30:29.607Z,1.68
2023-01-28T13:33:03.155Z,2.01
2023-01-28T13:35:34.621Z,2.02
2023-01-28T13:38:10.815Z,2.30
2023-01-28T13:40:39.759Z,2.58
2023-01-28T13:43:28.991Z,2.57
2023-01-28T13:46:01.126Z,2.69
2023-01-28T13:48:34.021Z,2.85
2023-01-28T13:51:04.680Z,2.53
2023-01-28T13:53:42.616Z,2.05
2023-01-28T13:56:21.506Z,2.13
2023-01-28T13:59:16.756Z,2.35
2023-01-28T14:02:12.693Z,2.36
2023-01-28T14:05:31.762Z,2.75
2023-01-28T14:08:56.603Z,2.40
2023-01-28T14:12:02.645Z,2.58
2023-01-28T14:15:05.218Z,2.54
2023-01-28T14:17:44.000Z,2.56
2023-01-28T14:20:19.841Z,2.52
2023-01-28T14:22:47.925Z,2.34
2023-01-28T14:25:22.075Z,2.36
2023-01-28T14:27:53.284Z,2.47
2023-01-28T14:30:25.433Z,2.79
2023-01-28T14:32:55.483Z,2.76
2023-01-28T14:35:39.876Z,2.77
2023-01-28T14:38:13.622Z,2.92
2023-01-28T14:40:42.079Z,2.97
2023-01-28T14:43:17.383Z,2.99
2023-01-28T14:46:04.955Z,2.99
2023-01-28T14:48:44.281Z,2.88
2023-01-28T14:51:24.272Z,2.68
2023-01-28T14:54:11.811Z,2.38
2023-01-28T14:57:07.400Z,2.33
2023-01-28T14:59:41.731Z,1.99
2023-01-28T15:02:19.930Z,2.00
2023-01-28T15:04:49.565Z,2.02
2023-01-28T15:07:20.083Z,2.21
2023-01-28T15:09:48.660Z,2.11
2023-01-28T15:12:18.236Z,2.11
2023-01-28T15:14:48.086Z,1.88
2023-01-28T15:17:25.585Z,1.76
2023-01-28T15:19:56.981Z,1.79
2023-01-28T15:22:28.738Z,1.78
2023-01-28T15:24:56.990Z,1.70
2023-01-28T15:27:29.424Z,1.60
2023-01-28T15:29:59.696Z,1.65
2023-01-28T15:32:29.671Z,1.48
2023-01-28T15:35:00.888Z,1.39
2023-01-28T15:37:28.878Z,1.34
2023-01-28T15:40:05.923Z,1.23
2023-01-28T15:42:35.310Z,1.34
2023-01-28T15:45:04.446Z,1.21
2023-01-28T15:47:35.302Z,1.28
2023-01-28T15:50:08.236Z,1.12
2023-01-28T15:52:38.913Z,1.01
2023-01-28T15:55:08.307Z,1.09
2023-01-28T15:57:36.713Z,1.08
2023-01-28T16:00:13.124Z,0.91
2023-01-28T16:02:45.929Z,0.96
2023-01-28T16:05:29.856Z,0.95
2023-01-28T16:07:59.342Z,0.91
2023-01-28T16:10:29.476Z,0.85
2023-01-28T16:13:05.648Z,0.81
2023-01-28T16:15:34.938Z,0.73
2023-01-28T16:18:03.941Z,0.68
2023-01-28T16:20:33.979Z,0.65
2023-01-28T16:23:04.053Z,0.59
2023-01-28T16:25:33.468Z,0.50
2023-01-28T16:28:03.007Z,0.45
2023-01-28T16:30:31.380Z,0.41
2023-01-28T16:33:00.237Z,0.40
2023-01-28T16:35:47.142Z,0.27
2023-01-28T16:38:19.776Z,0.21
2023-01-28T16:40:48.776Z,0.18
2023-01-28T16:43:20.529Z,0.13
2023-01-28T16:45:48.404Z,0.05
2023-01-28T16:48:16.282Z,0.00
2023-01-28T16:50:44.474Z,-0.12
2023-01-28T16:53:21.250Z,-0.15
2023-01-28T16:55:50.779Z,-0.23
2023-01-28T16:58:22.665Z,-0.31
2023-01-28T17:00:50.597Z,-0.33
2023-01-28T17:03:18.894Z,-0.36
2023-01-28T17:05:46.875Z,-0.40
2023-01-28T17:08:14.664Z,-0.43
2023-01-28T17:10:43.904Z,-0.45
2023-01-28T17:13:12.247Z,-0.47
2023-01-28T17:15:40.021Z,-0.58
2023-01-28T17:18:13.364Z,-0.67
2023-01-28T17:20:41.360Z,-0.68
2023-01-28T17:23:09.720Z,-0.74
2023-01-28T17:25:39.641Z,-0.78
2023-01-28T17:28:10.220Z,-0.81
2023-01-28T17:30:41.432Z,-0.83
2023-01-28T17:33:10.233Z,-0.85
2023-01-28T17:35:38.303Z,-0.87
2023-01-28T17:38:06.493Z,-0.85
2023-01-28T17:40:34.379Z,-0.85
2023-01-28T17:43:02.327Z,-0.90
2023-01-28T17:45:32.873Z,-0.95
2023-01-28T17:48:00.908Z,-0.99
2023-01-28T17:50:28.848Z,-1.00
2023-01-28T17:52:57.190Z,-1.03
2023-01-28T17:55:25.286Z,-1.04
2023-01-28T17:57:53.176Z,-1.08
2023-01-28T18:00:22.481Z,-1.11
2023-01-28T18:02:52.839Z,-1.14
2023-01-28T18:05:21.425Z,-1.22
2023-01-28T18:07:50.446Z,-1.23
2023-01-28T18:10:19.228Z,-1.27
2023-01-28T18:12:47.308Z,-1.31
2023-01-28T18:15:16.220Z,-1.41
2023-01-28T18:17:44.364Z,-1.42
2023-01-28T18:20:14.208Z,-1.45
2023-01-28T18:22:42.122Z,-1.28
2023-01-28T18:25:17.154Z,-1.38
2023-01-28T18:27:45.446Z,-1.45
2023-01-28T18:30:16.339Z,-1.50
2023-01-28T18:32:44.570Z,-1.54
2023-01-28T18:35:14.784Z,-1.55
2023-01-28T18:37:42.997Z,-1.61
2023-01-28T18:40:12.049Z,-1.66
2023-01-28T18:42:39.971Z,-1.68
2023-01-28T18:45:08.651Z,-1.75
2023-01-28T18:47:36.479Z,-1.78
2023-01-28T18:50:05.060Z,-1.77
2023-01-28T18:52:34.296Z,-1.78
2023-01-28T18:55:02.066Z,-1.82
2023-01-28T18:57:29.947Z,-1.84
2023-01-28T18:59:57.985Z,-1.90
2023-01-28T19:02:25.879Z,-1.94
2023-01-28T19:04:53.751Z,-1.99
2023-01-28T19:07:21.684Z,-2.00
2023-01-28T19:09:50.851Z,-1.97
2023-01-28T19:12:20.956Z,-2.00
2023-01-28T19:14:50.000Z,-2.06
2023-01-28T19:17:17.915Z,-2.06
2023-01-28T19:19:45.782Z,-2.05
2023-01-28T19:22:13.559Z,-2.03
2023-01-28T19:24:41.350Z,-2.04
2023-01-28T19:27:10.818Z,-2.12
2023-01-28T19:29:38.636Z,-2.19
2023-01-28T19:32:06.794Z,-2.37
2023-01-28T19:34:34.701Z,-2.33
2023-01-28T19:37:02.501Z,-2.32
2023-01-28T19:39:31.582Z,-2.32
2023-01-28T19:42:02.082Z,-2.38
2023-01-28T19:44:32.731Z,-2.37
2023-01-28T19:47:01.159Z,-2.43
2023-01-28T19:49:28.977Z,-2.46
2023-01-28T19:51:57.147Z,-2.48
2023-01-28T19:54:25.119Z,-2.47
2023-01-28T19:56:53.081Z,-2.50
2023-01-28T19:59:20.948Z,-2.52
2023-01-28T20:01:50.150Z,-2.51
2023-01-28T20:04:17.998Z,-2.50
2023-01-28T20:06:45.826Z,-2.54
2023-01-28T20:09:16.687Z,-2.57
2023-01-28T20:11:44.565Z,-2.59
2023-01-28T20:14:16.135Z,-2.59
2023-01-28T20:16:43.936Z,-2.59
2023-01-28T20:19:17.555Z,-2.58
2023-01-28T20:21:46.996Z,-2.58
2023-01-28T20:24:16.101Z,-2.61
2023-01-28T20:26:45.039Z,-2.64
2023-01-28T20:29:15.010Z,-2.67
2023-01-28T20:31:43.531Z,-2.69
2023-01-28T20:34:16.722Z,-2.75
2023-01-28T20:36:45.150Z,-2.77
2023-01-28T20:39:13.285Z,-2.75
2023-01-28T20:41:41.141Z,-2.78
2023-01-28T20:44:08.977Z,-2.85
2023-01-28T20:46:38.807Z,-2.95
2023-01-28T20:49:07.115Z,-2.95
2023-01-28T20:51:38.189Z,-2.96
2023-01-28T20:54:07.002Z,-3.01
2023-01-28T20:56:35.155Z,-3.02
2023-01-28T20:59:04.836Z,-3.07
2023-01-28T21:01:35.274Z,-3.12
2023-01-28T21:04:05.445Z,-3.10
2023-01-28T21:06:33.969Z,-3.09
2023-01-28T21:09:04.185Z,-3.13
2023-01-28T21:11:32.714Z,-3.13
2023-01-28T21:14:00.696Z,-3.12
2023-01-28T21:16:29.757Z,-3.10
2023-01-28T21:18:57.711Z,-3.12
2023-01-28T21:21:26.989Z,-3.12
2023-01-28T21:23:57.638Z,-3.17
2023-01-28T21:26:27.600Z,-3.13
2023-01-28T21:28:56.114Z,-3.15
2023-01-28T21:31:26.259Z,-3.23
2023-01-28T21:33:55.958Z,-3.17
2023-01-28T21:36:24.924Z,-3.17
2023-01-28T21:38:53.843Z,-3.14
2023-01-28T21:41:21.787Z,-3.12
2023-01-28T21:43:53.422Z,-3.14
2023-01-28T21:46:21.519Z,-3.16
2023-01-28T21:48:49.443Z,-3.21
2023-01-28T21:51:34.884Z,-3.22
2023-01-28T21:54:02.850Z,-3.23
2023-01-28T21:56:30.773Z,-3.24
2023-01-28T21:59:17.554Z,-3.21
2023-01-28T22:01:45.809Z,-3.21
2023-01-28T22:04:14.359Z,-3.22
2023-01-28T22:06:42.348Z,-3.30
2023-01-28T22:09:13.523Z,-3.34
2023-01-28T22:11:41.526Z,-3.37
2023-01-28T22:14:10.982Z,-3.41
2023-01-28T22:16:38.892Z,-3.44
2023-01-28T22:19:07.095Z,-3.45
2023-01-28T22:21:40.811Z,-3.47
2023-01-28T22:24:11.057Z,-3.50
2023-01-28T22:26:39.295Z,-3.49
2023-01-28T22:29:07.496Z,-3.47
2023-01-28T22:31:36.998Z,-3.51
2023-01-28T22:34:05.780Z,-3.50
2023-01-28T22:36:34.437Z,-3.49
2023-01-28T22:39:03.333Z,-3.51
2023-01-28T22:41:31.947Z,-3.54
2023-01-28T22:44:01.607Z,-3.57
2023-01-28T22:46:29.785Z,-3.61
2023-01-28T22:48:59.363Z,-3.61
2023-01-28T22:51:30.363Z,-3.63
2023-01-28T22:53:58.457Z,-3.69
2023-01-28T22:56:27.883Z,-3.74
2023-01-28T22:58:56.891Z,-3.73
2023-01-28T23:01:25.298Z,-3.75
2023-01-28T23:03:55.729Z,-3.75
2023-01-28T23:06:27.010Z,-3.75
2023-01-28T23:08:56.178Z,-3.77
2023-01-28T23:11:27.741Z,-3.78
2023-01-28T23:14:15.464Z,-3.80
2023-01-28T23:17:01.081Z,-3.82
2023-01-28T23:19:46.869Z,-3.85
2023-01-28T23:22:35.817Z,-3.83
2023-01-28T23:25:03.788Z,-3.85
2023-01-28T23:27:31.738Z,-3.88
2023-01-28T23:29:59.535Z,-3.90
2023-01-28T23:32:28.172Z,-3.95
2023-01-28T23:34:56.036Z,-3.96
2023-01-28T23:37:25.526Z,-4.01
2023-01-28T23:39:53.355Z,-4.02
2023-01-28T23:42:23.512Z,-3.99
2023-01-28T23:44:51.409Z,-3.99
2023-01-28T23:47:19.675Z,-3.99
2023-01-28T23:49:47.513Z,-3.99
2023-01-28T23:52:15.369Z,-4.03
2023-01-28T23:54:44.578Z,-4.04
2023-01-28T23:57:12.411Z,-4.05
2023-01-28T23:59:40.254Z,-4.06
